createdAt,value
2023-01-08T00:01:59.888Z,46.35
2023-01-08T00:04:28.063Z,66.32
2023-01-08T00:06:55.991Z,56.40
2023-01-08T00:09:24.013Z,106.85
2023-01-08T00:11:54.514Z,82.45
2023-01-08T00:14:22.471Z,80.07
2023-01-08T00:16:52.032Z,109.18
2023-01-08T00:19:20.128Z,78.90
2023-01-08T00:21:47.877Z,67.88
2023-01-08T00:24:15.830Z,70.50
2023-01-08T00:26:43.752Z,97.22
2023-01-08T00:29:11.578Z,128.48
2023-01-08T00:31:39.586Z,106.47
2023-01-08T00:34:07.501Z,97.18
2023-01-08T00:36:35.595Z,55.78
2023-01-08T00:39:03.488Z,33.28
2023-01-08T00:41:31.584Z,44.85
2023-01-08T00:43:59.471Z,40.60
2023-01-08T00:46:28.223Z,44.05
2023-01-08T00:48:56.128Z,59.13
2023-01-08T00:51:26.245Z,46.63
2023-01-08T00:53:54.022Z,54.67
2023-01-08T00:56:22.144Z,60.38
2023-01-08T00:58:50.021Z,95.10
2023-01-08T01:01:18.301Z,162.90
2023-01-08T01:03:46.603Z,71.72
2023-01-08T01:06:14.975Z,59.65
2023-01-08T01:08:44.562Z,67.10
2023-01-08T01:11:19.730Z,60.25
2023-01-08T01:13:48.661Z,99.05
2023-01-08T01:16:16.952Z,58.35
2023-01-08T01:18:45.249Z,72.32
2023-01-08T01:21:29.357Z,79.63
2023-01-08T01:23:59.765Z,41.17
2023-01-08T01:26:28.110Z,48.90
2023-01-08T01:28:57.706Z,71.15
2023-01-08T01:31:27.896Z,58.50
2023-01-08T01:33:56.575Z,55.75
2023-01-08T01:36:26.093Z,52.72
2023-01-08T01:41:38.033Z,50.90
2023-01-08T01:44:44.107Z,75.43
2023-01-08T01:47:21.234Z,71.20
2023-01-08T01:49:58.953Z,74.72
2023-01-08T01:52:30.781Z,81.85
2023-01-08T01:55:02.058Z,58.88
2023-01-08T01:57:31.837Z,63.38
2023-01-08T02:00:02.014Z,53.50
2023-01-08T02:02:39.732Z,40.20
2023-01-08T02:05:08.753Z,38.33
2023-01-08T02:07:39.561Z,44.08
2023-01-08T02:10:11.960Z,41.35
2023-01-08T02:12:47.648Z,36.30
2023-01-08T02:18:06.306Z,33.90
2023-01-08T02:20:39.876Z,33.50
2023-01-08T02:23:31.727Z,33.88
2023-01-08T02:26:14.069Z,30.38
2023-01-08T02:28:50.287Z,38.38
2023-01-08T02:31:19.976Z,42.40
2023-01-08T02:33:48.069Z,31.00
2023-01-08T02:36:43.320Z,26.52
2023-01-08T02:39:24.101Z,29.15
2023-01-08T02:42:04.609Z,28.52
2023-01-08T02:45:11.084Z,34.03
2023-01-08T02:50:25.208Z,39.78
2023-01-08T02:53:18.404Z,41.90
2023-01-08T02:55:53.585Z,40.75
2023-01-08T02:59:47.626Z,40.22
2023-01-08T03:02:16.656Z,46.33
2023-01-08T03:04:55.602Z,47.42
2023-01-08T03:07:23.681Z,63.83
2023-01-08T03:09:51.877Z,63.17
2023-01-08T03:12:35.450Z,54.15
2023-01-08T03:15:09.932Z,57.58
2023-01-08T03:17:46.333Z,63.83
2023-01-08T03:20:20.917Z,74.03
2023-01-08T03:22:54.974Z,90.15
2023-01-08T03:25:25.739Z,61.58
2023-01-08T03:27:58.957Z,64.75
2023-01-08T03:30:29.498Z,66.55
2023-01-08T03:33:00.243Z,89.55
2023-01-08T03:35:30.723Z,175.27
2023-01-08T03:38:08.776Z,74.47
2023-01-08T03:40:41.770Z,78.63
2023-01-08T03:43:09.821Z,82.75
2023-01-08T03:45:41.994Z,62.72
2023-01-08T03:48:10.470Z,62.78
2023-01-08T03:50:38.430Z,155.10
2023-01-08T03:53:08.824Z,148.32
2023-01-08T03:55:36.756Z,134.73
2023-01-08T03:58:04.599Z,106.50
2023-01-08T04:00:32.874Z,98.85
2023-01-08T04:03:00.712Z,70.97
2023-01-08T04:05:28.851Z,63.58
2023-01-08T04:10:45.346Z,94.03
2023-01-08T04:21:20.330Z,131.05
2023-01-08T04:23:48.268Z,118.88
2023-01-08T04:26:16.248Z,106.80
2023-01-08T04:28:44.120Z,69.07
2023-01-08T04:31:12.185Z,72.03
2023-01-08T04:33:40.175Z,68.35
2023-01-08T04:36:08.291Z,67.65
2023-01-08T04:38:36.313Z,52.13
2023-01-08T04:41:04.720Z,48.17
2023-01-08T04:43:33.422Z,46.60
2023-01-08T04:46:03.164Z,42.92
2023-01-08T04:48:31.845Z,35.38
2023-01-08T04:51:00.691Z,43.25
2023-01-08T04:53:30.461Z,75.82
2023-01-08T04:56:07.227Z,96.43
2023-01-08T04:58:36.348Z,49.13
2023-01-08T05:01:19.285Z,33.75
2023-01-08T05:03:47.780Z,33.92
2023-01-08T05:06:15.732Z,32.08
2023-01-08T05:08:43.819Z,44.47
2023-01-08T05:11:11.867Z,88.47
2023-01-08T05:13:39.901Z,75.68
2023-01-08T05:16:08.136Z,86.05
2023-01-08T05:18:36.188Z,80.55
2023-01-08T05:21:05.542Z,73.22
2023-01-08T05:23:34.089Z,78.45
2023-01-08T05:26:04.711Z,89.70
2023-01-08T05:28:36.087Z,93.00
2023-01-08T05:31:04.199Z,108.05
2023-01-08T05:33:32.175Z,124.20
2023-01-08T05:36:00.156Z,127.10
2023-01-08T05:38:28.165Z,100.45
2023-01-08T05:40:56.216Z,87.38
2023-01-08T05:43:24.297Z,110.82
2023-01-08T05:45:52.367Z,65.00
2023-01-08T05:48:20.424Z,53.42
2023-01-08T05:50:50.518Z,71.43
2023-01-08T05:53:19.178Z,91.10
2023-01-08T05:55:47.135Z,69.38
2023-01-08T05:58:19.315Z,65.95
2023-01-08T06:00:47.460Z,113.22
2023-01-08T06:03:15.467Z,77.70
2023-01-08T06:05:43.517Z,88.63
2023-01-08T06:08:11.577Z,89.10
2023-01-08T06:10:39.530Z,78.32
2023-01-08T06:13:08.931Z,66.68
2023-01-08T06:18:06.907Z,78.18
2023-01-08T06:20:35.121Z,121.28
2023-01-08T06:23:03.115Z,100.13
2023-01-08T06:25:31.294Z,90.88
2023-01-08T06:27:59.282Z,99.90
2023-01-08T06:30:27.280Z,105.60
2023-01-08T06:32:59.439Z,92.50
2023-01-08T06:35:28.016Z,73.85
2023-01-08T06:37:56.784Z,89.47
2023-01-08T06:40:24.914Z,97.18
2023-01-08T06:42:52.957Z,73.05
2023-01-08T06:45:21.322Z,100.15
2023-01-08T06:47:49.294Z,180.23
2023-01-08T06:50:17.199Z,125.65
2023-01-08T06:52:51.762Z,84.28
2023-01-08T06:55:20.341Z,79.20
2023-01-08T06:57:48.330Z,82.60
2023-01-08T07:00:17.433Z,80.50
2023-01-08T07:02:45.470Z,78.63
2023-01-08T07:05:14.482Z,83.13
2023-01-08T07:07:42.384Z,112.15
2023-01-08T07:10:10.415Z,114.97
2023-01-08T07:12:38.467Z,102.93
2023-01-08T07:15:07.018Z,93.90
2023-01-08T07:17:35.226Z,95.35
2023-01-08T07:20:03.270Z,78.10
2023-01-08T07:22:31.652Z,134.27
2023-01-08T07:24:59.839Z,85.90
2023-01-08T07:27:27.796Z,106.65
2023-01-08T07:29:56.252Z,98.55
2023-01-08T07:32:24.271Z,94.35
2023-01-08T07:34:54.585Z,87.25
2023-01-08T07:37:22.967Z,83.03
2023-01-08T07:39:53.249Z,74.15
2023-01-08T07:42:21.705Z,64.82
2023-01-08T07:44:49.697Z,48.88
2023-01-08T07:47:18.432Z,63.88
2023-01-08T07:49:46.262Z,48.50
2023-01-08T07:52:14.357Z,40.30
2023-01-08T07:54:42.525Z,34.97
2023-01-08T07:57:10.580Z,25.60
2023-01-08T07:59:38.891Z,23.73
2023-01-08T08:02:08.082Z,36.90
2023-01-08T08:04:36.735Z,29.55
2023-01-08T08:07:05.017Z,25.50
2023-01-08T08:09:32.922Z,19.88
2023-01-08T08:12:01.159Z,23.80
2023-01-08T08:14:29.084Z,31.92
2023-01-08T08:16:57.579Z,37.45
2023-01-08T08:19:25.789Z,40.03
2023-01-08T08:21:55.711Z,49.20
2023-01-08T08:24:24.428Z,43.25
2023-01-08T08:26:54.465Z,41.80
2023-01-08T08:29:23.121Z,36.60
2023-01-08T08:31:51.511Z,42.83
2023-01-08T08:34:22.903Z,45.20
2023-01-08T08:36:51.474Z,40.83
2023-01-08T08:39:20.159Z,41.42
2023-01-08T08:41:48.861Z,34.63
2023-01-08T08:44:17.232Z,29.45
2023-01-08T08:46:45.584Z,43.38
2023-01-08T08:49:14.466Z,32.33
2023-01-08T08:51:42.917Z,29.50
2023-01-08T08:54:12.076Z,27.05
2023-01-08T08:56:40.366Z,26.33
2023-01-08T08:59:12.207Z,24.02
2023-01-08T09:01:40.537Z,23.23
2023-01-08T09:04:08.734Z,19.90
2023-01-08T09:06:37.266Z,21.55
2023-01-08T09:09:08.002Z,19.60
2023-01-08T09:11:36.405Z,26.10
2023-01-08T09:14:04.261Z,25.70
2023-01-08T09:16:33.396Z,20.48
2023-01-08T09:19:01.935Z,19.17
2023-01-08T09:21:30.392Z,16.10
2023-01-08T09:23:58.855Z,13.18
2023-01-08T09:26:30.394Z,17.38
2023-01-08T09:28:59.080Z,36.55
2023-01-08T09:31:27.927Z,35.85
2023-01-08T09:33:56.626Z,14.48
2023-01-08T09:36:24.750Z,13.32
2023-01-08T09:38:52.853Z,17.02
2023-01-08T09:41:29.455Z,16.67
2023-01-08T09:44:00.780Z,20.30
2023-01-08T09:46:30.097Z,18.85
2023-01-08T09:49:02.054Z,10.00
2023-01-08T09:51:38.212Z,14.35
2023-01-08T09:54:07.734Z,14.05
2023-01-08T09:56:39.769Z,15.60
2023-01-08T09:59:11.633Z,13.93
2023-01-08T10:01:41.721Z,12.40
2023-01-08T10:04:26.563Z,10.20
2023-01-08T10:07:02.490Z,12.05
2023-01-08T10:15:05.081Z,15.88
2023-01-08T10:20:26.773Z,27.88
2023-01-08T10:22:55.554Z,15.73
2023-01-08T10:25:27.058Z,12.88
2023-01-08T10:28:01.066Z,14.00
2023-01-08T10:30:40.230Z,15.10
2023-01-08T10:33:21.233Z,13.07
2023-01-08T10:36:04.535Z,13.35
2023-01-08T10:38:36.860Z,15.80
2023-01-08T10:41:12.594Z,17.27
2023-01-08T10:44:00.777Z,10.60
2023-01-08T10:46:31.177Z,10.77
2023-01-08T10:49:01.510Z,15.98
2023-01-08T10:51:31.829Z,22.20
2023-01-08T10:54:13.287Z,17.08
2023-01-08T10:56:44.039Z,14.32
2023-01-08T10:59:25.259Z,10.98
2023-01-08T11:01:56.823Z,8.10
2023-01-08T11:04:33.090Z,10.95
2023-01-08T11:07:03.378Z,11.25
2023-01-08T11:09:34.739Z,14.73
2023-01-08T11:12:03.213Z,11.48
2023-01-08T11:14:40.278Z,15.18
2023-01-08T11:17:13.351Z,12.23
2023-01-08T11:19:41.950Z,10.23
2023-01-08T11:22:24.603Z,11.07
2023-01-08T11:24:54.554Z,9.70
2023-01-08T11:27:36.242Z,12.25
2023-01-08T11:30:20.046Z,8.40
2023-01-08T11:33:04.379Z,12.95
2023-01-08T11:35:50.300Z,10.15
2023-01-08T11:38:18.870Z,9.70
2023-01-08T11:43:24.332Z,8.68
2023-01-08T11:46:07.887Z,12.18
2023-01-08T11:49:24.749Z,16.42
2023-01-08T11:52:23.639Z,9.93
2023-01-08T11:54:57.756Z,14.75
2023-01-08T11:58:03.081Z,14.95
2023-01-08T12:00:43.461Z,13.43
2023-01-08T12:05:57.021Z,41.35
2023-01-08T12:08:46.150Z,24.23
2023-01-08T12:11:29.247Z,18.55
2023-01-08T12:14:09.473Z,11.02
2023-01-08T12:16:59.220Z,35.65
2023-01-08T12:20:04.205Z,40.67
2023-01-08T12:23:11.929Z,47.15
2023-01-08T12:25:54.573Z,61.88
2023-01-08T12:28:23.211Z,126.03
2023-01-08T12:33:53.916Z,28.02
2023-01-08T12:36:30.251Z,22.02
2023-01-08T12:39:03.844Z,21.17
2023-01-08T12:41:38.486Z,34.33
2023-01-08T12:46:43.456Z,12.68
2023-01-08T12:49:16.205Z,30.77
2023-01-08T12:52:02.481Z,12.02
2023-01-08T12:54:51.743Z,19.67
2023-01-08T12:57:30.487Z,33.13
2023-01-08T13:00:25.872Z,34.78
2023-01-08T13:03:02.526Z,66.07
2023-01-08T13:05:32.572Z,37.58
2023-01-08T13:08:22.197Z,21.02
2023-01-08T13:10:54.137Z,35.00
2023-01-08T13:13:44.525Z,27.77
2023-01-08T13:16:12.498Z,37.10
2023-01-08T13:18:41.010Z,33.65
2023-01-08T13:21:12.206Z,19.27
2023-01-08T13:23:44.340Z,34.40
2023-01-08T13:26:12.728Z,22.65
2023-01-08T13:28:45.524Z,21.33
2023-01-08T13:31:23.093Z,15.40
2023-01-08T13:33:54.917Z,17.90
2023-01-08T13:36:30.909Z,17.60
2023-01-08T13:39:10.772Z,15.80
2023-01-08T13:41:46.344Z,19.40
2023-01-08T13:44:42.898Z,9.52
2023-01-08T13:47:29.632Z,16.58
2023-01-08T13:49:59.430Z,14.43
2023-01-08T13:52:35.032Z,18.35
2023-01-08T13:55:06.499Z,24.02
2023-01-08T13:57:45.116Z,14.20
2023-01-08T14:00:24.121Z,20.90
2023-01-08T14:02:55.258Z,25.77
2023-01-08T14:05:26.782Z,48.05
2023-01-08T14:07:55.456Z,28.58
2023-01-08T14:10:24.463Z,24.15
2023-01-08T14:12:53.144Z,28.75
2023-01-08T14:15:27.760Z,50.75
2023-01-08T14:17:58.046Z,40.42
2023-01-08T14:20:38.553Z,54.92
2023-01-08T14:23:13.524Z,37.63
2023-01-08T14:25:42.150Z,36.13
2023-01-08T14:28:17.812Z,37.70
2023-01-08T14:30:57.096Z,42.90
2023-01-08T14:33:33.715Z,29.88
2023-01-08T14:36:09.099Z,27.52
2023-01-08T14:38:37.503Z,55.42
2023-01-08T14:41:10.175Z,65.30
2023-01-08T14:43:49.811Z,73.55
2023-01-08T14:46:25.596Z,52.53
2023-01-08T14:48:56.278Z,56.33
2023-01-08T14:51:28.490Z,80.68
2023-01-08T14:54:02.126Z,81.07
2023-01-08T14:56:35.408Z,70.60
2023-01-08T14:59:12.333Z,76.28
2023-01-08T15:01:40.913Z,93.25
2023-01-08T15:04:19.701Z,123.22
2023-01-08T15:06:49.713Z,103.65
2023-01-08T15:09:29.523Z,99.03
2023-01-08T15:12:02.965Z,98.90
2023-01-08T15:14:33.882Z,105.60
2023-01-08T15:17:10.699Z,85.82
2023-01-08T15:19:47.021Z,108.30
2023-01-08T15:22:27.455Z,96.72
2023-01-08T15:25:05.468Z,77.90
2023-01-08T15:27:38.203Z,86.13
2023-01-08T15:30:09.622Z,67.95
2023-01-08T15:32:39.336Z,76.78
2023-01-08T15:35:16.512Z,52.90
2023-01-08T15:37:45.063Z,66.13
2023-01-08T15:40:13.747Z,83.32
2023-01-08T15:43:02.760Z,72.75
2023-01-08T15:45:34.390Z,74.40
2023-01-08T15:48:04.557Z,80.38
2023-01-08T15:50:37.054Z,41.30
2023-01-08T15:53:10.445Z,39.10
2023-01-08T15:55:39.525Z,68.00
2023-01-08T15:58:09.635Z,105.97
2023-01-08T16:00:38.094Z,145.00
2023-01-08T16:03:07.966Z,48.95
2023-01-08T16:05:37.424Z,33.90
2023-01-08T16:08:06.310Z,38.92
2023-01-08T16:10:35.014Z,59.97
2023-01-08T16:13:03.739Z,47.83
2023-01-08T16:15:32.928Z,47.10
2023-01-08T16:26:13.151Z,66.63
2023-01-08T16:28:41.806Z,98.30
2023-01-08T16:31:11.301Z,106.43
2023-01-08T16:33:39.913Z,61.95
2023-01-08T16:36:09.514Z,102.05
2023-01-08T16:38:38.349Z,131.68
2023-01-08T16:41:06.952Z,142.02
2023-01-08T16:43:41.827Z,127.85
2023-01-08T16:46:15.234Z,108.20
2023-01-08T16:48:44.159Z,96.15
2023-01-08T16:51:13.580Z,158.98
2023-01-08T16:53:42.204Z,176.55
2023-01-08T16:56:10.865Z,137.48
2023-01-08T16:58:39.427Z,105.40
2023-01-08T17:01:10.160Z,157.02
2023-01-08T17:03:39.289Z,69.90
2023-01-08T17:06:10.799Z,39.70
2023-01-08T17:08:42.835Z,71.40
2023-01-08T17:11:13.399Z,82.70
2023-01-08T17:13:42.227Z,134.13
2023-01-08T17:16:13.516Z,56.38
2023-01-08T17:18:42.728Z,134.27
2023-01-08T17:21:13.005Z,65.50
2023-01-08T17:23:41.935Z,53.50
2023-01-08T17:26:14.204Z,43.72
2023-01-08T17:28:42.835Z,34.72
2023-01-08T17:31:13.945Z,33.75
2023-01-08T17:33:42.559Z,56.13
2023-01-08T17:36:13.126Z,78.15
2023-01-08T17:38:43.359Z,105.50
2023-01-08T17:41:32.181Z,52.55
2023-01-08T17:44:00.923Z,28.35
2023-01-08T17:46:29.493Z,34.28
2023-01-08T17:48:57.937Z,37.10
2023-01-08T17:51:26.507Z,47.13
2023-01-08T17:53:56.821Z,26.20
2023-01-08T17:56:25.550Z,25.83
2023-01-08T17:58:53.924Z,35.45
2023-01-08T18:01:22.489Z,87.07
2023-01-08T18:03:51.335Z,42.13
2023-01-08T18:06:20.071Z,35.63
2023-01-08T18:08:48.579Z,33.25
2023-01-08T18:11:17.072Z,31.63
2023-01-08T18:13:45.734Z,25.15
2023-01-08T18:16:14.667Z,23.58
2023-01-08T18:18:43.149Z,30.75
2023-01-08T18:21:11.702Z,30.58
2023-01-08T18:23:42.909Z,28.30
2023-01-08T18:26:12.509Z,29.02
2023-01-08T18:28:41.128Z,56.17
2023-01-08T18:31:11.793Z,53.53
2023-01-08T18:33:41.309Z,59.63
2023-01-08T18:36:12.114Z,58.30
2023-01-08T18:38:42.589Z,36.85
2023-01-08T18:41:34.217Z,22.80
2023-01-08T18:44:06.078Z,29.05
2023-01-08T18:46:35.244Z,21.02
2023-01-08T18:51:32.562Z,19.90
2023-01-08T18:54:01.346Z,19.17
2023-01-08T18:56:32.388Z,20.30
2023-01-08T18:59:01.588Z,20.10
2023-01-08T19:03:58.750Z,19.20
2023-01-08T19:06:27.760Z,19.73
2023-01-08T19:08:58.681Z,14.05
2023-01-08T19:11:27.642Z,17.08
2023-01-08T19:13:58.792Z,21.55
2023-01-08T19:16:27.719Z,22.73
2023-01-08T19:18:57.275Z,34.55
2023-01-08T19:21:26.377Z,30.45
2023-01-08T19:23:55.081Z,32.88
2023-01-08T19:26:23.640Z,38.58
2023-01-08T19:28:52.035Z,35.75
2023-01-08T19:31:20.619Z,28.40
2023-01-08T19:33:48.910Z,23.60
2023-01-08T19:36:19.943Z,23.67
2023-01-08T19:38:48.455Z,25.90
2023-01-08T19:41:35.284Z,40.60
2023-01-08T19:44:04.947Z,21.13
2023-01-08T19:46:33.476Z,18.70
2023-01-08T19:49:02.964Z,42.78
2023-01-08T19:51:32.824Z,64.18
2023-01-08T19:54:01.536Z,70.57
2023-01-08T19:56:30.739Z,69.53
2023-01-08T20:01:29.063Z,152.25
2023-01-08T20:03:57.818Z,89.45
2023-01-08T20:06:27.371Z,92.30
2023-01-08T20:08:59.391Z,86.40
2023-01-08T20:11:29.710Z,80.68
2023-01-08T20:14:03.219Z,49.33
2023-01-08T20:16:32.539Z,75.30
2023-01-08T20:19:06.710Z,42.35
2023-01-08T20:21:35.317Z,48.35
2023-01-08T20:24:09.869Z,69.05
2023-01-08T20:26:39.318Z,26.63
2023-01-08T20:29:08.541Z,63.03
2023-01-08T20:31:37.655Z,21.27
2023-01-08T20:34:17.409Z,17.85
2023-01-08T20:36:46.956Z,74.13
2023-01-08T20:39:17.345Z,68.03
2023-01-08T20:41:55.384Z,44.58
2023-01-08T20:44:33.891Z,41.33
2023-01-08T20:47:02.849Z,54.78
2023-01-08T20:49:32.968Z,58.05
2023-01-08T20:52:01.388Z,47.17
2023-01-08T20:54:30.743Z,47.25
2023-01-08T20:57:00.793Z,55.38
2023-01-08T21:01:57.468Z,57.05
2023-01-08T21:04:25.836Z,51.00
2023-01-08T21:06:54.106Z,46.88
2023-01-08T21:09:22.111Z,92.88
2023-01-08T21:11:51.004Z,96.05
2023-01-08T21:14:19.604Z,103.88
2023-01-08T21:16:48.278Z,89.65
2023-01-08T21:19:16.709Z,58.95
2023-01-08T21:21:46.059Z,52.80
2023-01-08T21:24:15.031Z,53.20
2023-01-08T21:26:45.297Z,100.35
2023-01-08T21:29:14.096Z,106.32
2023-01-08T21:31:42.083Z,104.05
2023-01-08T21:34:11.937Z,104.15
2023-01-08T21:36:40.326Z,113.45
2023-01-08T21:39:08.461Z,144.45
2023-01-08T21:41:55.378Z,148.63
2023-01-08T21:44:43.849Z,176.80
2023-01-08T21:47:18.065Z,160.35
2023-01-08T21:49:46.734Z,180.07
2023-01-08T21:52:34.024Z,168.38
2023-01-08T21:55:02.462Z,214.02
2023-01-08T21:57:30.487Z,157.27
2023-01-08T21:59:58.716Z,159.65
2023-01-08T22:02:26.713Z,151.85
2023-01-08T22:04:56.430Z,154.52
2023-01-08T22:07:28.229Z,142.40
2023-01-08T22:09:56.181Z,150.95
2023-01-08T22:12:25.790Z,128.75
2023-01-08T22:14:54.996Z,165.75
2023-01-08T22:19:52.572Z,175.20
2023-01-08T22:22:20.683Z,162.40
2023-01-08T22:24:50.409Z,197.73
2023-01-08T22:27:18.364Z,226.30
2023-01-08T22:29:48.057Z,216.23
2023-01-08T22:32:18.626Z,232.00
2023-01-08T22:34:47.149Z,214.30
2023-01-08T22:37:17.143Z,197.90
2023-01-08T22:39:46.071Z,198.07
2023-01-08T22:42:14.254Z,199.27
2023-01-08T22:44:42.176Z,199.23
2023-01-08T22:47:10.290Z,202.35
2023-01-08T22:49:38.437Z,193.70
2023-01-08T22:52:07.211Z,204.63
2023-01-08T22:54:35.348Z,191.13
2023-01-08T22:57:03.243Z,205.85
2023-01-08T22:59:31.547Z,184.75
2023-01-08T23:01:59.447Z,204.27
2023-01-08T23:04:27.448Z,179.95
2023-01-08T23:06:55.348Z,166.20
2023-01-08T23:09:23.362Z,195.68
2023-01-08T23:11:51.350Z,189.77
2023-01-08T23:14:19.177Z,179.63
2023-01-08T23:16:47.437Z,205.68
2023-01-08T23:19:15.710Z,261.95
2023-01-08T23:21:43.716Z,245.32
2023-01-08T23:24:14.072Z,226.88
2023-01-08T23:26:43.015Z,209.25
2023-01-08T23:29:11.453Z,196.55
2023-01-08T23:31:39.560Z,177.07
2023-01-08T23:34:08.188Z,220.48
2023-01-08T23:36:36.413Z,168.95
2023-01-08T23:39:05.080Z,134.50
2023-01-08T23:41:35.041Z,196.50
2023-01-08T23:44:07.286Z,201.50
2023-01-08T23:46:35.668Z,145.80
2023-01-08T23:49:04.857Z,105.03
2023-01-08T23:51:33.029Z,94.28
2023-01-08T23:54:01.515Z,86.88
2023-01-08T23:56:31.219Z,83.80
2023-01-08T23:58:59.354Z,57.10
